createdAt,value
2023-02-23T00:01:42.206Z,49022.25
2023-02-23T00:04:09.473Z,49000.72
2023-02-23T00:06:36.747Z,49014.41
2023-02-23T00:09:15.313Z,49016.38
2023-02-23T00:11:41.843Z,48992.88
2023-02-23T00:14:09.455Z,49020.31
2023-02-23T00:16:37.441Z,49043.81
2023-02-23T00:19:07.768Z,49004.63
2023-02-23T00:21:37.105Z,49016.38
2023-02-23T00:24:09.500Z,49028.13
2023-02-23T00:26:39.480Z,49024.22
2023-02-23T00:29:25.706Z,49006.59
2023-02-23T00:31:52.685Z,49004.63
2023-02-23T00:34:23.690Z,49008.53
2023-02-23T00:36:52.053Z,49016.38
2023-02-23T00:39:21.891Z,49020.31
2023-02-23T00:41:49.768Z,49016.38
2023-02-23T00:44:17.474Z,49012.47
2023-02-23T00:46:45.430Z,49008.53
2023-02-23T00:49:13.965Z,49008.53
2023-02-23T00:51:40.414Z,49008.53
2023-02-23T00:54:08.717Z,48996.78
2023-02-23T00:56:35.165Z,49016.38
2023-02-23T00:59:01.719Z,49020.31
2023-02-23T01:01:28.283Z,49006.59
2023-02-23T01:03:54.879Z,49004.63
2023-02-23T01:06:22.054Z,49020.31
2023-02-23T01:08:50.163Z,49016.38
2023-02-23T01:11:23.090Z,49016.38
2023-02-23T01:13:52.531Z,49016.38
2023-02-23T01:16:22.773Z,49010.50
2023-02-23T01:18:49.249Z,49012.47
2023-02-23T01:21:22.800Z,48996.78
2023-02-23T01:23:51.369Z,49012.47
2023-02-23T01:26:24.152Z,49004.63
2023-02-23T01:28:56.513Z,49004.63
2023-02-23T01:31:24.368Z,48994.84
2023-02-23T01:33:55.877Z,49018.34
2023-02-23T01:36:23.075Z,49024.22
2023-02-23T01:38:49.748Z,49010.50
2023-02-23T01:41:17.079Z,49012.47
2023-02-23T01:44:01.599Z,49012.47
2023-02-23T01:46:28.058Z,48992.88
2023-02-23T01:48:56.435Z,49004.63
2023-02-23T01:51:27.723Z,49039.88
2023-02-23T01:54:02.391Z,48996.78
2023-02-23T01:56:43.324Z,49016.38
2023-02-23T01:59:12.619Z,49014.41
2023-02-23T02:01:42.032Z,49020.31
2023-02-23T02:04:16.347Z,49037.94
2023-02-23T02:06:45.772Z,49012.47
2023-02-23T02:09:19.896Z,49020.31
2023-02-23T02:11:49.002Z,48992.88
2023-02-23T02:14:19.107Z,49012.47
2023-02-23T02:17:05.093Z,49032.06
2023-02-23T02:20:01.303Z,49004.63
2023-02-23T02:23:03.430Z,49014.41
2023-02-23T02:25:49.823Z,49020.31
2023-02-23T02:28:31.207Z,48996.78
2023-02-23T02:31:30.159Z,49006.59
2023-02-23T02:34:32.613Z,49016.38
2023-02-23T02:37:12.390Z,49035.97
2023-02-23T02:40:14.864Z,49024.22
2023-02-23T02:42:55.172Z,48988.94
2023-02-23T02:45:39.740Z,49022.25
2023-02-23T02:48:32.136Z,49020.31
2023-02-23T02:51:10.068Z,49018.34
2023-02-23T02:53:46.284Z,49012.47
2023-02-23T02:56:20.149Z,49028.13
2023-02-23T02:58:50.076Z,49024.22
2023-02-23T03:01:37.045Z,49016.38
2023-02-23T03:04:43.440Z,48992.88
2023-02-23T03:07:53.470Z,48988.94
2023-02-23T03:10:38.400Z,49006.59
2023-02-23T03:13:44.637Z,49020.31
2023-02-23T03:16:41.934Z,49008.53
2023-02-23T03:19:34.684Z,49016.38
2023-02-23T03:22:40.418Z,49008.53
2023-02-23T03:25:32.884Z,49012.47
2023-02-23T03:28:36.376Z,49034.00
2023-02-23T03:31:30.788Z,49022.25
2023-02-23T03:34:39.639Z,49008.53
2023-02-23T03:37:35.591Z,49026.19
2023-02-23T03:40:31.102Z,49018.34
2023-02-23T03:43:20.029Z,49012.47
2023-02-23T03:46:07.922Z,49016.38
2023-02-23T03:48:55.352Z,49020.31
2023-02-23T03:51:43.253Z,49020.31
2023-02-23T03:54:39.276Z,49018.34
2023-02-23T03:57:29.210Z,49032.06
2023-02-23T04:00:18.659Z,49024.22
2023-02-23T04:03:08.458Z,49026.19
2023-02-23T04:05:56.887Z,49010.50
2023-02-23T04:08:49.041Z,49016.38
2023-02-23T04:11:42.894Z,49004.63
2023-02-23T04:14:17.951Z,48992.88
2023-02-23T04:16:45.386Z,49035.97
2023-02-23T04:19:12.456Z,49024.22
2023-02-23T04:21:38.914Z,49018.34
2023-02-23T04:24:05.462Z,49004.63
2023-02-23T04:26:32.205Z,49012.47
2023-02-23T04:28:58.568Z,49024.22
2023-02-23T04:31:26.168Z,49012.47
2023-02-23T04:33:52.811Z,48992.88
2023-02-23T04:36:19.212Z,49008.53
2023-02-23T04:38:45.574Z,49008.53
2023-02-23T04:41:11.947Z,49000.72
2023-02-23T04:43:38.396Z,49016.38
2023-02-23T04:46:04.939Z,49008.53
2023-02-23T04:48:31.344Z,49024.22
2023-02-23T04:50:57.710Z,49016.38
2023-02-23T04:53:24.590Z,49024.22
2023-02-23T04:55:51.652Z,49028.13
2023-02-23T04:58:18.415Z,49012.47
2023-02-23T05:00:44.801Z,49018.34
2023-02-23T05:03:12.152Z,49008.53
2023-02-23T05:05:39.501Z,49000.72
2023-02-23T05:08:06.380Z,48996.78
2023-02-23T05:10:32.868Z,49008.53
2023-02-23T05:12:59.631Z,49024.22
2023-02-23T05:15:25.987Z,49024.22
2023-02-23T05:17:52.385Z,49006.59
2023-02-23T05:20:18.893Z,48988.94
2023-02-23T05:22:45.644Z,49016.38
2023-02-23T05:25:12.087Z,49000.72
2023-02-23T05:27:39.408Z,49014.41
2023-02-23T05:30:07.888Z,49012.47
2023-02-23T05:32:34.636Z,49012.47
2023-02-23T05:35:02.449Z,49010.50
2023-02-23T05:37:29.017Z,49008.53
2023-02-23T05:39:55.480Z,49016.38
2023-02-23T05:42:21.868Z,48998.75
2023-02-23T05:44:48.444Z,49012.47
2023-02-23T05:47:14.818Z,49016.38
2023-02-23T05:49:41.220Z,48985.03
2023-02-23T05:52:08.394Z,49004.63
2023-02-23T05:54:35.079Z,49010.50
2023-02-23T05:57:01.931Z,49020.31
2023-02-23T05:59:28.526Z,49020.31
2023-02-23T06:01:54.914Z,48988.94
2023-02-23T06:04:23.313Z,49020.31
2023-02-23T06:06:49.882Z,49024.22
2023-02-23T06:09:16.599Z,48996.78
2023-02-23T06:11:42.972Z,49012.47
2023-02-23T06:14:09.652Z,48992.88
2023-02-23T06:16:36.234Z,48992.88
2023-02-23T06:19:03.040Z,49000.72
2023-02-23T06:21:29.468Z,48994.84
2023-02-23T06:23:55.900Z,49006.59
2023-02-23T06:26:22.261Z,48992.88
2023-02-23T06:28:48.655Z,49002.66
2023-02-23T06:31:15.091Z,49000.72
2023-02-23T06:33:41.618Z,49006.59
2023-02-23T06:36:08.388Z,48992.88
2023-02-23T06:38:34.861Z,48996.78
2023-02-23T06:41:06.955Z,48996.78
2023-02-23T06:43:33.785Z,49004.63
2023-02-23T06:46:00.145Z,49000.72
2023-02-23T06:48:27.175Z,48992.88
2023-02-23T06:50:53.663Z,48996.78
2023-02-23T06:53:20.630Z,49000.72
2023-02-23T06:55:47.017Z,49004.63
2023-02-23T06:58:13.556Z,48998.75
2023-02-23T07:00:42.952Z,48996.78
2023-02-23T07:03:11.111Z,49014.41
2023-02-23T07:05:37.477Z,49008.53
2023-02-23T07:08:04.062Z,48988.94
2023-02-23T07:10:30.467Z,48977.19
2023-02-23T07:12:57.136Z,48985.03
2023-02-23T07:15:24.198Z,48996.78
2023-02-23T07:17:52.693Z,49008.53
2023-02-23T07:20:19.715Z,48996.78
2023-02-23T07:22:46.112Z,48985.03
2023-02-23T07:25:12.587Z,48977.19
2023-02-23T07:27:42.109Z,48977.19
2023-02-23T07:30:09.357Z,48975.25
2023-02-23T07:32:35.881Z,48971.31
2023-02-23T07:35:03.509Z,48985.03
2023-02-23T07:37:29.942Z,48969.38
2023-02-23T07:39:56.325Z,48973.28
2023-02-23T07:42:22.709Z,48977.19
2023-02-23T07:44:49.110Z,48985.03
2023-02-23T07:47:15.573Z,48977.19
2023-02-23T07:49:42.945Z,48977.19
2023-02-23T07:52:09.390Z,48983.06
2023-02-23T07:54:35.823Z,48975.25
2023-02-23T07:57:02.244Z,48969.38
2023-02-23T07:59:29.054Z,48977.19
2023-02-23T08:01:55.489Z,48977.19
2023-02-23T08:04:21.926Z,48983.06
2023-02-23T08:06:48.325Z,48965.44
2023-02-23T08:09:14.762Z,48969.38
2023-02-23T08:11:41.184Z,48961.53
2023-02-23T08:14:07.559Z,48973.28
2023-02-23T08:16:34.395Z,48957.59
2023-02-23T08:19:01.501Z,48949.78
2023-02-23T08:21:29.707Z,48957.59
2023-02-23T08:23:57.357Z,48953.69
2023-02-23T08:26:25.314Z,48945.84
2023-02-23T08:28:53.326Z,48953.69
2023-02-23T08:31:24.396Z,48953.69
2023-02-23T08:33:51.512Z,48949.78
2023-02-23T08:36:18.729Z,48973.28
2023-02-23T08:38:45.135Z,48981.13
2023-02-23T08:41:11.516Z,48955.66
2023-02-23T08:43:39.203Z,48961.53
2023-02-23T08:46:06.649Z,48967.41
2023-02-23T08:48:33.610Z,48969.38
2023-02-23T08:51:00.505Z,48949.78
2023-02-23T08:53:29.644Z,48955.66
2023-02-23T08:55:57.794Z,48959.56
2023-02-23T08:58:24.321Z,48959.56
2023-02-23T09:00:50.743Z,48953.69
2023-02-23T09:03:17.194Z,48945.84
2023-02-23T09:05:44.297Z,48949.78
2023-02-23T09:08:12.457Z,48957.59
2023-02-23T09:10:39.235Z,48953.69
2023-02-23T09:13:05.799Z,48953.69
2023-02-23T09:15:32.223Z,48973.28
2023-02-23T09:18:02.463Z,48965.44
2023-02-23T09:20:29.164Z,48973.28
2023-02-23T09:22:55.601Z,48981.13
2023-02-23T09:25:23.064Z,48965.44
2023-02-23T09:27:56.325Z,48971.31
2023-02-23T09:30:23.143Z,48967.41
2023-02-23T09:32:51.531Z,48957.59
2023-02-23T09:35:19.610Z,48977.19
2023-02-23T09:37:51.454Z,48992.88
2023-02-23T09:40:21.972Z,48965.44
2023-02-23T09:43:03.458Z,48977.19
2023-02-23T09:45:38.568Z,48969.38
2023-02-23T09:48:04.858Z,48981.13
2023-02-23T09:50:34.915Z,48985.03
2023-02-23T09:53:07.636Z,48985.03
2023-02-23T09:55:34.373Z,48973.28
2023-02-23T09:58:08.508Z,48985.03
2023-02-23T10:00:44.796Z,48977.19
2023-02-23T10:03:33.600Z,48988.94
2023-02-23T10:06:05.419Z,48981.13
2023-02-23T10:08:41.020Z,48988.94
2023-02-23T10:11:22.808Z,48996.78
2023-02-23T10:14:12.538Z,48985.03
2023-02-23T10:16:59.308Z,48981.13
2023-02-23T10:19:38.550Z,48992.88
2023-02-23T10:22:09.206Z,48988.94
2023-02-23T10:25:00.593Z,48996.78
2023-02-23T10:27:37.562Z,48990.91
2023-02-23T10:30:13.021Z,48985.03
2023-02-23T10:32:45.892Z,48996.78
2023-02-23T10:35:16.039Z,49004.63
2023-02-23T10:37:42.634Z,48987.00
2023-02-23T10:40:18.491Z,48985.03
2023-02-23T10:42:44.945Z,48987.00
2023-02-23T10:45:23.283Z,48987.00
2023-02-23T10:48:05.421Z,48996.78
2023-02-23T10:50:33.729Z,49008.53
2023-02-23T10:53:10.029Z,48988.94
2023-02-23T10:55:36.568Z,49012.47
2023-02-23T10:58:03.297Z,48992.88
2023-02-23T11:00:33.242Z,49012.47
2023-02-23T11:03:02.849Z,48992.88
2023-02-23T11:05:55.453Z,48988.94
2023-02-23T11:08:26.251Z,49000.72
2023-02-23T11:11:02.761Z,49004.63
2023-02-23T11:13:41.691Z,48992.88
2023-02-23T11:16:11.462Z,49008.53
2023-02-23T11:18:39.908Z,49008.53
2023-02-23T11:21:13.450Z,49008.53
2023-02-23T11:23:41.379Z,49002.66
2023-02-23T11:26:23.170Z,49016.38
2023-02-23T11:28:53.886Z,49020.31
2023-02-23T11:31:23.834Z,49012.47
2023-02-23T11:33:53.351Z,49002.66
2023-02-23T11:36:22.831Z,49020.31
2023-02-23T11:39:03.732Z,49000.72
2023-02-23T11:41:32.797Z,49012.47
2023-02-23T11:44:04.290Z,49020.31
2023-02-23T11:46:36.664Z,49016.38
2023-02-23T11:49:07.326Z,49016.38
2023-02-23T11:51:36.896Z,49037.94
2023-02-23T11:54:05.746Z,49012.47
2023-02-23T11:56:34.264Z,48994.84
2023-02-23T11:59:08.598Z,49028.13
2023-02-23T12:01:44.600Z,49026.19
2023-02-23T12:04:23.942Z,49016.38
2023-02-23T12:06:51.655Z,49026.19
2023-02-23T12:09:27.476Z,49032.06
2023-02-23T12:12:04.565Z,49024.22
2023-02-23T12:14:37.678Z,49016.38
2023-02-23T12:17:16.003Z,49035.97
2023-02-23T12:19:51.262Z,49026.19
2023-02-23T12:22:22.332Z,49024.22
2023-02-23T12:25:02.250Z,49020.31
2023-02-23T12:27:42.075Z,49034.00
2023-02-23T12:30:11.767Z,49026.19
2023-02-23T12:33:02.173Z,49035.97
2023-02-23T12:35:44.662Z,49012.47
2023-02-23T12:38:33.197Z,49024.22
2023-02-23T12:41:12.378Z,49024.22
2023-02-23T12:43:55.500Z,49047.72
2023-02-23T12:46:26.518Z,49051.66
2023-02-23T12:49:17.101Z,49039.88
2023-02-23T12:51:51.645Z,49032.06
2023-02-23T12:54:18.594Z,49045.78
2023-02-23T12:56:57.651Z,49055.56
2023-02-23T12:59:25.302Z,49071.25
2023-02-23T13:02:18.584Z,49045.78
2023-02-23T13:04:51.067Z,49053.59
2023-02-23T13:07:22.095Z,49039.88
2023-02-23T13:10:31.817Z,49047.72
2023-02-23T13:13:12.769Z,49055.56
2023-02-23T13:15:55.572Z,49035.97
2023-02-23T13:18:32.179Z,49055.56
2023-02-23T13:21:09.633Z,49049.69
2023-02-23T13:23:42.988Z,49055.56
2023-02-23T13:26:37.305Z,49035.97
2023-02-23T13:29:17.496Z,49032.06
2023-02-23T13:31:44.830Z,49059.47
2023-02-23T13:34:17.528Z,49047.72
2023-02-23T13:36:45.852Z,49059.47
2023-02-23T13:39:37.171Z,49039.88
2023-02-23T13:42:41.589Z,49043.81
2023-02-23T13:45:46.026Z,49047.72
2023-02-23T13:48:56.044Z,49047.72
2023-02-23T13:51:47.429Z,49071.25
2023-02-23T13:54:14.423Z,49063.41
2023-02-23T13:56:48.302Z,49071.25
2023-02-23T13:59:29.396Z,49051.66
2023-02-23T14:01:56.500Z,49055.56
2023-02-23T14:04:29.458Z,49059.47
2023-02-23T14:07:02.218Z,49055.56
2023-02-23T14:09:32.669Z,49059.47
2023-02-23T14:12:11.192Z,49051.66
2023-02-23T14:14:42.864Z,49067.31
2023-02-23T14:17:09.184Z,49051.66
2023-02-23T14:19:40.904Z,49063.41
2023-02-23T14:22:17.073Z,49051.66
2023-02-23T14:24:43.515Z,49073.19
2023-02-23T14:27:34.112Z,49047.72
2023-02-23T14:30:20.256Z,49071.25
2023-02-23T14:32:49.489Z,49069.28
2023-02-23T14:35:34.069Z,49071.25
2023-02-23T14:38:04.797Z,49084.94
2023-02-23T14:40:34.855Z,49075.16
2023-02-23T14:43:03.328Z,49043.81
2023-02-23T14:45:32.928Z,49075.16
2023-02-23T14:48:05.209Z,49077.13
2023-02-23T14:50:34.967Z,49086.91
2023-02-23T14:53:04.328Z,49083.00
2023-02-23T14:55:35.259Z,49079.06
2023-02-23T14:58:03.463Z,49094.75
2023-02-23T15:00:33.453Z,49090.81
2023-02-23T15:03:01.075Z,49079.06
2023-02-23T15:05:37.033Z,49102.59
2023-02-23T15:08:07.924Z,49110.41
2023-02-23T15:10:40.834Z,49094.75
2023-02-23T15:13:18.263Z,49096.72
2023-02-23T15:15:45.919Z,49075.16
2023-02-23T15:19:09.189Z,49086.91
2023-02-23T15:21:36.704Z,49071.25
2023-02-23T15:24:16.499Z,49086.91
2023-02-23T15:26:43.848Z,49086.91
2023-02-23T15:29:10.283Z,49083.00
2023-02-23T15:31:40.784Z,49079.06
2023-02-23T15:34:11.196Z,49086.91
2023-02-23T15:36:41.614Z,49067.31
2023-02-23T15:39:14.693Z,49104.53
2023-02-23T15:41:43.709Z,49071.25
2023-02-23T15:44:19.064Z,49098.66
2023-02-23T15:46:56.664Z,49079.06
2023-02-23T15:49:27.612Z,49071.25
2023-02-23T15:52:00.792Z,49083.00
2023-02-23T15:54:31.935Z,49081.03
2023-02-23T15:57:07.108Z,49084.94
2023-02-23T15:59:37.892Z,49077.13
2023-02-23T16:02:16.664Z,49075.16
2023-02-23T16:04:47.040Z,49063.41
2023-02-23T16:07:18.480Z,49083.00
2023-02-23T16:10:05.570Z,49043.81
2023-02-23T16:12:36.524Z,49079.06
2023-02-23T16:15:06.517Z,49075.16
2023-02-23T16:17:42.038Z,49069.28
2023-02-23T16:20:14.747Z,49051.66
2023-02-23T16:22:45.956Z,49083.00
2023-02-23T16:25:16.194Z,49059.47
2023-02-23T16:27:44.646Z,49079.06
2023-02-23T16:30:34.206Z,49071.25
2023-02-23T16:33:05.349Z,49086.91
2023-02-23T16:35:39.789Z,49039.88
2023-02-23T16:38:13.316Z,49079.06
2023-02-23T16:40:43.907Z,49065.34
2023-02-23T16:43:10.483Z,49071.25
2023-02-23T16:45:40.278Z,49049.69
2023-02-23T16:48:13.318Z,49059.47
2023-02-23T16:50:40.914Z,49067.31
2023-02-23T16:53:10.842Z,49069.28
2023-02-23T16:55:40.310Z,49067.31
2023-02-23T16:58:10.984Z,49035.97
2023-02-23T17:00:37.539Z,49024.22
2023-02-23T17:03:06.653Z,49008.53
2023-02-23T17:05:33.359Z,48959.56
2023-02-23T17:07:59.772Z,48889.03
2023-02-23T17:10:32.654Z,48855.75
2023-02-23T17:13:05.138Z,48847.91
2023-02-23T17:15:40.779Z,48851.81
2023-02-23T17:18:07.507Z,48845.94
2023-02-23T17:20:34.048Z,48845.94
2023-02-23T17:23:02.519Z,48847.91
2023-02-23T17:25:29.690Z,48855.75
2023-02-23T17:27:57.751Z,48849.88
2023-02-23T17:30:25.373Z,48847.91
2023-02-23T17:32:54.217Z,48855.75
2023-02-23T17:35:21.525Z,48871.41
2023-02-23T17:37:48.437Z,48867.50
2023-02-23T17:40:18.669Z,48851.81
2023-02-23T17:42:45.478Z,48853.78
2023-02-23T17:45:12.075Z,48855.75
2023-02-23T17:47:40.512Z,48851.81
2023-02-23T17:50:07.935Z,48855.75
2023-02-23T17:52:34.373Z,48857.69
2023-02-23T17:55:00.852Z,48859.66
2023-02-23T17:57:29.303Z,48859.66
2023-02-23T17:59:56.108Z,48865.53
2023-02-23T18:02:23.094Z,48867.50
2023-02-23T18:04:50.549Z,48865.53
2023-02-23T18:07:18.445Z,48869.44
2023-02-23T18:09:45.058Z,48859.66
2023-02-23T18:12:11.538Z,48863.56
2023-02-23T18:14:38.100Z,48855.75
2023-02-23T18:17:05.070Z,48851.81
2023-02-23T18:19:32.164Z,48859.66
2023-02-23T18:21:58.585Z,48863.56
2023-02-23T18:24:27.281Z,48855.75
2023-02-23T18:27:00.498Z,48851.81
2023-02-23T18:29:28.818Z,48851.81
2023-02-23T18:31:57.564Z,48859.66
2023-02-23T18:34:25.717Z,48847.91
2023-02-23T18:36:52.123Z,48847.91
2023-02-23T18:39:18.534Z,48855.75
2023-02-23T18:41:45.799Z,48853.78
2023-02-23T18:44:14.785Z,48855.75
2023-02-23T18:46:42.461Z,48859.66
2023-02-23T18:49:17.748Z,48859.66
2023-02-23T18:51:44.657Z,48859.66
2023-02-23T18:54:16.753Z,48863.56
2023-02-23T18:56:47.482Z,48863.56
2023-02-23T18:59:15.033Z,48863.56
2023-02-23T19:01:45.328Z,48871.41
2023-02-23T19:04:13.019Z,48873.38
2023-02-23T19:06:42.519Z,48871.41
2023-02-23T19:09:09.669Z,48875.34
2023-02-23T19:11:37.506Z,48883.16
2023-02-23T19:14:08.664Z,48883.16
2023-02-23T19:16:36.192Z,48883.16
2023-02-23T19:19:06.943Z,48883.16
2023-02-23T19:21:33.773Z,48883.16
2023-02-23T19:24:02.485Z,48883.16
2023-02-23T19:26:30.255Z,48887.09
2023-02-23T19:28:57.736Z,48883.16
2023-02-23T19:31:26.116Z,48879.25
2023-02-23T19:33:57.574Z,48871.41
2023-02-23T19:36:30.546Z,48871.41
2023-02-23T19:39:06.136Z,48885.13
2023-02-23T19:41:33.896Z,48879.25
2023-02-23T19:44:00.719Z,48883.16
2023-02-23T19:46:27.656Z,48869.44
2023-02-23T19:48:55.740Z,48867.50
2023-02-23T19:51:23.557Z,48865.53
2023-02-23T19:53:53.499Z,48871.41
2023-02-23T19:56:20.381Z,48871.41
2023-02-23T19:58:48.281Z,48871.41
2023-02-23T20:01:17.285Z,48885.13
2023-02-23T20:03:45.168Z,48883.16
2023-02-23T20:06:13.517Z,48887.09
2023-02-23T20:08:41.286Z,48891.00
2023-02-23T20:11:08.139Z,48883.16
2023-02-23T20:13:35.208Z,48887.09
2023-02-23T20:16:09.012Z,48883.16
2023-02-23T20:18:39.053Z,48887.09
2023-02-23T20:21:18.111Z,48887.09
2023-02-23T20:23:46.686Z,48892.97
2023-02-23T20:26:21.868Z,48875.34
2023-02-23T20:28:50.015Z,48875.34
2023-02-23T20:31:32.153Z,48883.16
2023-02-23T20:34:03.787Z,48889.03
2023-02-23T20:36:30.421Z,48892.97
2023-02-23T20:38:57.027Z,48887.09
2023-02-23T20:41:24.001Z,48887.09
2023-02-23T20:43:52.049Z,48883.16
2023-02-23T20:46:19.781Z,48881.22
2023-02-23T20:48:49.012Z,48883.16
2023-02-23T20:51:19.081Z,48883.16
2023-02-23T20:53:48.119Z,48891.00
2023-02-23T20:56:17.345Z,48894.91
2023-02-23T20:58:44.911Z,48891.00
2023-02-23T21:01:22.363Z,48894.91
2023-02-23T21:03:51.568Z,48894.91
2023-02-23T21:06:20.036Z,48892.97
2023-02-23T21:08:48.991Z,48887.09
2023-02-23T21:11:18.007Z,48891.00
2023-02-23T21:13:44.673Z,48883.16
2023-02-23T21:16:16.927Z,48887.09
2023-02-23T21:18:43.595Z,48894.91
2023-02-23T21:21:10.918Z,48894.91
2023-02-23T21:23:44.831Z,48892.97
2023-02-23T21:26:14.632Z,48900.78
2023-02-23T21:28:46.607Z,48894.91
2023-02-23T21:31:14.400Z,48898.84
2023-02-23T21:33:42.794Z,48898.84
2023-02-23T21:36:10.794Z,48887.09
2023-02-23T21:38:38.400Z,48887.09
2023-02-23T21:41:05.170Z,48891.00
2023-02-23T21:43:34.737Z,48883.16
2023-02-23T21:46:09.434Z,48891.00
2023-02-23T21:48:36.029Z,48887.09
2023-02-23T21:51:08.053Z,48892.97
2023-02-23T21:53:34.791Z,48894.91
2023-02-23T21:56:11.640Z,48894.91
2023-02-23T21:58:50.141Z,48898.84
2023-02-23T22:01:31.243Z,48891.00
2023-02-23T22:03:57.896Z,48894.91
2023-02-23T22:06:30.142Z,48887.09
2023-02-23T22:08:57.370Z,48865.53
2023-02-23T22:11:26.603Z,48859.66
2023-02-23T22:14:01.580Z,48863.56
2023-02-23T22:16:36.062Z,48867.50
2023-02-23T22:19:04.123Z,48867.50
2023-02-23T22:21:32.456Z,48863.56
2023-02-23T22:23:59.029Z,48871.41
2023-02-23T22:26:25.633Z,48861.63
2023-02-23T22:28:52.037Z,48857.69
2023-02-23T22:31:18.772Z,48873.38
2023-02-23T22:33:45.389Z,48875.34
2023-02-23T22:36:14.229Z,48879.25
2023-02-23T22:38:41.896Z,48861.63
2023-02-23T22:41:12.958Z,48863.56
2023-02-23T22:43:41.924Z,48871.41
2023-02-23T22:46:09.718Z,48871.41
2023-02-23T22:48:36.684Z,48861.63
2023-02-23T22:51:03.401Z,48863.56
2023-02-23T22:53:29.880Z,48863.56
2023-02-23T22:55:57.293Z,48865.53
2023-02-23T22:58:26.253Z,48863.56
2023-02-23T23:01:04.040Z,48871.41
2023-02-23T23:03:38.086Z,48869.44
2023-02-23T23:06:08.043Z,48871.41
2023-02-23T23:08:42.357Z,48861.63
2023-02-23T23:11:15.125Z,48863.56
2023-02-23T23:13:44.564Z,48867.50
2023-02-23T23:16:30.554Z,48867.50
2023-02-23T23:19:04.094Z,48879.25
2023-02-23T23:21:33.220Z,48883.16
2023-02-23T23:24:01.648Z,48883.16
2023-02-23T23:26:29.377Z,48883.16
2023-02-23T23:28:57.919Z,48885.13
2023-02-23T23:31:28.264Z,48887.09
2023-02-23T23:33:57.962Z,48894.91
2023-02-23T23:36:28.765Z,48887.09
2023-02-23T23:38:56.501Z,48887.09
2023-02-23T23:41:24.997Z,48883.16
2023-02-23T23:43:59.386Z,48887.09
2023-02-23T23:46:28.388Z,48891.00
2023-02-23T23:48:57.350Z,48885.13
2023-02-23T23:51:30.543Z,48891.00
2023-02-23T23:54:01.746Z,48891.00
2023-02-23T23:56:34.636Z,48889.03
2023-02-23T23:59:02.138Z,48883.16
